Time;durP1;ratioP1;P1;durP2;ratioP2;P2;SDS_P1;SDS_P2;PMS_P1;PMS_P2;Temp;Humidity;BMP_temperature;BMP_pressure;BME280_temperature;BME280_humidity;BME280_pressure;Samples;Min_cycle;Max_cycle;Signal;HPM_P1;HPM_P2
2021/12/11 00:01:26;;;;;;;33.27;23.73;;;;;;;6.35;95.02;98815.00;5113471;28;20655;-57
2021/12/11 00:03:58;;;;;;;33.03;22.50;;;;;;;6.26;95.51;98820.78;5113348;28;20193;-57
2021/12/11 00:06:28;;;;;;;26.87;20.60;;;;;;;6.36;95.00;98822.72;5111539;28;20194;-57
2021/12/11 00:08:58;;;;;;;32.27;21.57;;;;;;;6.31;95.07;98824.31;5101731;28;20627;-57
2021/12/11 00:11:30;;;;;;;29.20;20.07;;;;;;;6.17;95.06;98823.13;5092620;28;20274;-57
2021/12/11 00:14:00;;;;;;;27.43;19.60;;;;;;;6.26;95.22;98838.63;5092580;28;20194;-57
2021/12/11 00:16:29;;;;;;;28.67;20.13;;;;;;;6.29;95.16;98846.34;5092438;28;20667;-57
2021/12/11 00:19:01;;;;;;;31.17;21.10;;;;;;;6.29;95.35;98859.09;5092502;28;20196;-57
2021/12/11 00:21:29;;;;;;;28.90;21.40;;;;;;;6.27;95.31;98868.41;5092473;28;20192;-57
2021/12/11 00:24:01;;;;;;;32.33;21.57;;;;;;;6.27;95.41;98865.00;5092482;28;20282;-57
2021/12/11 00:26:32;;;;;;;33.23;21.30;;;;;;;6.27;94.62;98870.97;5092382;28;20278;-57
2021/12/11 00:29:00;;;;;;;30.67;21.77;;;;;;;6.26;94.38;98876.88;5092395;28;20228;-57
2021/12/11 00:31:29;;;;;;;30.07;20.83;;;;;;;6.29;94.85;98888.88;5092182;28;20605;-57
2021/12/11 00:33:56;;;;;;;26.90;20.57;;;;;;;6.25;94.50;98890.50;5092473;28;20204;-57
2021/12/11 00:36:31;;;;;;;30.53;21.47;;;;;;;6.28;94.97;98885.47;5092307;28;20282;-57
2021/12/11 00:39:05;;;;;;;27.83;19.97;;;;;;;6.27;94.58;98887.97;5092424;28;20201;-57
2021/12/11 00:41:34;;;;;;;29.80;20.67;;;;;;;6.28;95.40;98889.69;5092004;28;20196;-57
2021/12/11 00:44:02;;;;;;;26.30;20.93;;;;;;;6.30;95.08;98886.34;5092253;28;21106;-57
2021/12/11 00:46:31;;;;;;;33.57;21.10;;;;;;;6.32;94.51;98882.13;5092564;28;20279;-57
2021/12/11 00:49:08;;;;;;;30.53;19.77;;;;;;;6.36;94.23;98877.97;5091995;28;20228;-57
2021/12/11 00:51:35;;;;;;;27.67;19.90;;;;;;;6.37;94.50;98885.66;5092113;28;20682;-57
2021/12/11 00:54:03;;;;;;;32.63;21.03;;;;;;;6.35;94.54;98879.66;5091911;28;20215;-57
2021/12/11 00:56:32;;;;;;;34.67;24.73;;;;;;;6.16;94.31;98867.31;5091799;28;20193;-57
2021/12/11 00:59:04;;;;;;;46.13;30.73;;;;;;;6.01;95.35;98855.91;5092028;28;20725;-57
2021/12/11 01:01:34;;;;;;;33.60;22.57;;;;;;;5.82;96.46;98857.94;5092111;28;20906;-57
2021/12/11 01:04:07;;;;;;;34.97;23.27;;;;;;;5.75;97.36;98870.50;5091671;28;20193;-57
2021/12/11 01:06:38;;;;;;;28.27;20.07;;;;;;;5.72;98.04;98867.88;5091493;28;20191;-57
2021/12/11 01:09:12;;;;;;;26.07;20.30;;;;;;;5.69;98.82;98860.16;5091400;28;20216;-57
2021/12/11 01:11:43;;;;;;;26.90;18.63;;;;;;;5.75;98.29;98842.47;5091481;28;20294;-57
2021/12/11 01:14:20;;;;;;;27.20;18.40;;;;;;;5.81;98.78;98850.28;5091611;28;20202;-57
2021/12/11 01:16:53;;;;;;;23.43;17.73;;;;;;;5.88;98.60;98844.53;5091412;28;20282;-57
2021/12/11 01:19:21;;;;;;;25.50;18.37;;;;;;;5.96;98.07;98853.22;5091244;28;20629;-57
2021/12/11 01:21:57;;;;;;;25.90;19.43;;;;;;;5.99;98.16;98845.66;5091712;28;20302;-57
2021/12/11 01:24:31;;;;;;;26.03;19.97;;;;;;;6.01;97.12;98846.56;5091179;28;20231;-58
2021/12/11 01:27:04;;;;;;;29.13;19.13;;;;;;;6.11;97.61;98855.28;5090778;28;20194;-57
2021/12/11 01:29:33;;;;;;;26.10;19.07;;;;;;;6.15;96.81;98865.59;5091271;28;20322;-57
2021/12/11 01:32:01;;;;;;;26.10;18.03;;;;;;;6.05;97.20;98842.38;5091265;28;20287;-60
2021/12/11 01:34:30;;;;;;;23.35;20.70;;;;;;;6.19;97.30;98861.41;5089865;28;20523;-60
2021/12/11 01:36:58;;;;;;;25.37;19.20;;;;;;;6.07;96.87;98835.66;5091103;28;20202;-60
2021/12/11 01:39:27;;;;;;;24.93;19.23;;;;;;;6.23;96.34;98853.03;5091192;28;20191;-60
2021/12/11 01:41:56;;;;;;;22.47;17.67;;;;;;;6.11;96.57;98845.94;5090958;28;20188;-59
2021/12/11 01:44:30;;;;;;;24.33;21.33;;;;;;;6.02;96.96;98842.31;5089749;28;20528;-60
2021/12/11 01:47:05;;;;;;;30.27;20.67;;;;;;;6.04;96.84;98839.00;5091123;28;20201;-60
2021/12/11 01:49:33;;;;;;;27.10;18.63;;;;;;;5.91;96.94;98836.94;5090795;28;20700;-60
2021/12/11 01:52:07;;;;;;;27.83;19.27;;;;;;;5.89;96.68;98836.06;5090753;28;20189;-60
2021/12/11 01:54:37;;;;;;;25.13;19.40;;;;;;;5.84;97.23;98840.16;5090653;28;20283;-60
2021/12/11 01:57:10;;;;;;;26.20;20.23;;;;;;;5.70;97.77;98844.06;5090675;28;20189;-59
2021/12/11 01:59:40;;;;;;;31.13;19.97;;;;;;;5.65;97.35;98855.81;5090892;28;20971;-59
2021/12/11 02:02:11;;;;;;;27.03;19.17;;;;;;;5.63;97.78;98844.75;5090495;28;20197;-60
2021/12/11 02:04:41;;;;;;;23.93;17.97;;;;;;;5.49;97.40;98840.97;5090796;28;20191;-59
2021/12/11 02:07:13;;;;;;;23.23;17.10;;;;;;;5.44;97.70;98837.47;5090645;28;20219;-59
2021/12/11 02:09:44;;;;;;;27.73;19.87;;;;;;;5.44;98.05;98845.94;5090448;28;20227;-60
2021/12/11 02:12:17;;;;;;;28.77;19.87;;;;;;;5.43;97.90;98843.38;5090758;28;20254;-59
2021/12/11 02:14:49;;;;;;;25.03;18.90;;;;;;;5.34;98.09;98839.75;5090422;28;20278;-59
2021/12/11 02:17:22;;;;;;;24.30;18.50;;;;;;;5.34;98.39;98844.84;5090529;28;20200;-59
2021/12/11 02:19:51;;;;;;;24.33;17.07;;;;;;;5.25;98.16;98843.72;5090261;28;20282;-60
2021/12/11 02:22:24;;;;;;;21.10;15.87;;;;;;;5.22;98.09;98849.59;5090317;28;20656;-60
2021/12/11 02:24:54;;;;;;;23.00;16.87;;;;;;;5.06;97.22;98839.84;5090438;28;20221;-59
2021/12/11 02:27:24;;;;;;;20.47;14.17;;;;;;;4.94;97.77;98853.91;5090482;28;20190;-60
2021/12/11 02:29:55;;;;;;;20.90;13.23;;;;;;;4.84;98.66;98849.38;5089972;28;20228;-60
2021/12/11 02:32:30;;;;;;;20.65;16.95;;;;;;;4.82;98.35;98841.72;5089498;28;20436;-59
2021/12/11 02:35:01;;;;;;;18.53;14.13;;;;;;;4.72;98.70;98849.91;5090565;28;20252;-60
2021/12/11 02:37:37;;;;;;;17.77;13.30;;;;;;;4.74;97.89;98833.88;5090228;28;20636;-60
2021/12/11 02:40:12;;;;;;;21.50;13.17;;;;;;;4.62;98.33;98845.34;5092400;28;20223;-59
2021/12/11 02:42:45;;;;;;;18.20;14.20;;;;;;;4.67;98.19;98848.88;5094314;28;20275;-59
2021/12/11 02:45:18;;;;;;;17.10;14.30;;;;;;;4.74;99.28;98830.44;5094211;28;20198;-60
2021/12/11 02:47:48;;;;;;;17.80;14.00;;;;;;;4.80;98.66;98834.84;5094516;28;20210;-60
2021/12/11 02:50:20;;;;;;;20.67;14.37;;;;;;;4.82;98.92;98838.28;5094118;28;20305;-59
2021/12/11 02:52:53;;;;;;;17.80;14.60;;;;;;;4.88;97.89;98841.88;5094189;28;20195;-60
2021/12/11 02:55:27;;;;;;;19.60;14.87;;;;;;;4.88;97.94;98841.88;5094229;28;20202;-60
2021/12/11 02:57:58;;;;;;;21.70;17.98;;;;;;;4.97;98.27;98831.94;5093176;28;20523;-59
2021/12/11 03:00:29;;;;;;;19.70;16.20;;;;;;;4.90;97.68;98845.31;5094251;28;20195;-59
2021/12/11 03:03:03;;;;;;;24.87;16.50;;;;;;;4.85;97.80;98834.16;5094009;28;20572;-59
2021/12/11 03:05:38;;;;;;;21.03;15.63;;;;;;;4.76;97.89;98839.84;5094144;28;20190;-59
2021/12/11 03:08:10;;;;;;;21.63;14.20;;;;;;;4.78;98.38;98842.44;5093997;28;20208;-59
2021/12/11 03:10:38;;;;;;;19.87;14.20;;;;;;;4.68;97.93;98845.53;5094116;28;20199;-59
2021/12/11 03:13:05;;;;;;;19.17;17.08;;;;;;;4.85;98.17;98839.25;5093020;28;20432;-60
2021/12/11 03:15:33;;;;;;;19.97;16.67;;;;;;;4.93;97.92;98839.47;5093786;28;20283;-59
2021/12/11 03:18:00;;;;;;;28.93;22.53;;;;;;;4.95;97.03;98833.59;5093810;28;20231;-59
2021/12/11 03:20:28;;;;;;;32.07;24.10;;;;;;;4.98;96.69;98813.31;5093984;28;20474;-60
2021/12/11 03:22:55;;;;;;;26.17;20.73;;;;;;;4.99;96.37;98799.78;5094136;28;20188;-60
2021/12/11 03:25:27;;;;;;;19.83;15.90;;;;;;;4.97;95.62;98796.31;5094020;28;20192;-60
2021/12/11 03:27:54;;;;;;;17.73;13.60;;;;;;;4.96;96.40;98804.78;5093721;28;20197;-59
2021/12/11 03:30:25;;;;;;;16.23;10.87;;;;;;;4.97;96.11;98809.03;5093211;28;20319;-59
2021/12/11 03:32:55;;;;;;;14.07;11.60;;;;;;;5.03;96.18;98804.09;5093443;28;20192;-59
2021/12/11 03:35:23;;;;;;;19.03;11.10;;;;;;;5.08;96.54;98797.44;5093688;28;20271;-60
2021/12/11 03:37:51;;;;;;;13.00;10.23;;;;;;;5.12;96.23;98800.94;5093612;28;20217;-60
2021/12/11 03:40:19;;;;;;;15.00;11.23;;;;;;;5.14;95.45;98792.53;5093463;28;20274;-60
2021/12/11 03:42:50;;;;;;;19.83;14.20;;;;;;;5.21;95.72;98801.19;5093110;28;20191;-60
2021/12/11 03:45:21;;;;;;;18.10;14.10;;;;;;;5.25;95.70;98808.94;5093288;28;20657;-60
2021/12/11 03:47:52;;;;;;;19.00;14.93;;;;;;;5.29;95.33;98823.50;5093507;28;20204;-61
2021/12/11 03:50:23;;;;;;;19.30;14.57;;;;;;;5.32;95.01;98832.91;5092686;28;20594;-60
2021/12/11 03:52:52;;;;;;;19.73;14.07;;;;;;;5.41;95.61;98845.00;5093647;28;20281;-60
2021/12/11 03:55:24;;;;;;;16.23;12.40;;;;;;;5.43;95.18;98838.28;5113278;28;20184;-60
2021/12/11 03:57:58;;;;;;;16.48;12.55;;;;;;;5.55;95.71;98848.78;5112519;28;20992;-60
2021/12/11 04:00:28;;;;;;;17.97;14.03;;;;;;;5.59;94.15;98835.28;5113138;28;20195;-59
2021/12/11 04:03:02;;;;;;;22.03;15.40;;;;;;;5.64;93.83;98828.59;5113327;28;20277;-60
2021/12/11 04:05:30;;;;;;;17.60;13.60;;;;;;;5.62;93.52;98832.81;5113283;28;20190;-59
2021/12/11 04:07:57;;;;;;;19.00;14.37;;;;;;;5.63;93.78;98863.41;5113317;28;20198;-60
2021/12/11 04:10:27;;;;;;;17.70;13.90;;;;;;;5.61;93.48;98854.88;5113072;28;20220;-60
2021/12/11 04:12:57;;;;;;;16.70;14.00;;;;;;;5.65;93.51;98864.34;5113313;28;20196;-60
2021/12/11 04:15:25;;;;;;;15.30;12.27;;;;;;;5.58;94.00;98846.28;5112933;28;20196;-60
2021/12/11 04:17:54;;;;;;;21.60;16.57;;;;;;;5.66;94.61;98834.63;5111979;28;21018;-59
2021/12/11 04:20:25;;;;;;;21.87;14.87;;;;;;;5.69;94.07;98842.31;5111615;28;20200;-60
2021/12/11 04:22:53;;;;;;;24.57;16.60;;;;;;;5.70;94.12;98823.66;5092290;28;20198;-59
2021/12/11 04:25:22;;;;;;;24.50;15.93;;;;;;;5.68;93.78;98813.44;5094246;28;20679;-60
2021/12/11 04:27:49;;;;;;;28.65;19.90;;;;;;;5.70;95.25;98813.47;5103102;28;20443;-60
2021/12/11 04:30:20;;;;;;;25.23;17.90;;;;;;;5.75;94.56;98810.22;5112347;28;20229;-60
2021/12/11 04:32:48;;;;;;;26.50;20.65;;;;;;;5.79;94.17;98814.56;5111879;28;20427;-60
2021/12/11 04:35:17;;;;;;;24.47;18.03;;;;;;;5.96;93.74;98824.34;5112815;28;20193;-60
2021/12/11 04:37:44;;;;;;;24.87;18.07;;;;;;;5.98;93.49;98823.53;5112646;28;20546;-60
2021/12/11 04:40:17;;;;;;;20.47;17.60;;;;;;;6.01;93.32;98810.88;5112770;28;20274;-60
2021/12/11 04:42:53;;;;;;;23.80;16.53;;;;;;;5.99;92.48;98804.00;5112721;28;20238;-60
2021/12/11 04:45:28;;;;;;;21.53;15.70;;;;;;;5.95;92.73;98805.63;5112552;28;20227;-60
2021/12/11 04:48:00;;;;;;;23.98;19.02;;;;;;;6.02;93.03;98792.19;5111567;28;20491;-60
2021/12/11 04:50:37;;;;;;;22.23;16.13;;;;;;;6.05;93.02;98774.41;5112046;28;20267;-60
2021/12/11 04:53:17;;;;;;;24.77;17.40;;;;;;;6.10;92.19;98777.06;5112178;28;20232;-60
2021/12/11 04:55:57;;;;;;;21.07;16.10;;;;;;;6.09;92.83;98770.25;5112138;28;20197;-60
2021/12/11 04:58:48;;;;;;;20.63;16.70;;;;;;;6.03;92.46;98770.09;5112034;28;20192;-60
2021/12/11 05:01:34;;;;;;;24.13;17.50;;;;;;;6.05;92.16;98770.97;5111731;28;20222;-60
2021/12/11 05:04:14;;;;;;;30.10;22.45;;;;;;;6.18;93.18;98771.28;5110479;28;20435;-60
2021/12/11 05:06:51;;;;;;;24.70;19.50;;;;;;;6.30;92.57;98789.41;5111990;28;20197;-60
2021/12/11 05:09:35;;;;;;;26.43;18.43;;;;;;;6.24;92.05;98804.59;5112020;28;20220;-60
2021/12/11 05:12:15;;;;;;;26.53;19.47;;;;;;;6.17;91.51;98792.53;5111898;28;20230;-60
2021/12/11 05:14:43;;;;;;;25.63;17.73;;;;;;;6.06;91.94;98788.88;5111759;28;20197;-60
2021/12/11 05:17:12;;;;;;;27.13;19.37;;;;;;;5.99;92.87;98789.56;5112239;28;20194;-60
2021/12/11 05:19:41;;;;;;;29.63;20.97;;;;;;;5.96;92.55;98761.44;5111825;28;20194;-60
2021/12/11 05:22:10;;;;;;;26.50;19.23;;;;;;;5.91;92.79;98758.81;5111606;28;20280;-60
2021/12/11 05:24:39;;;;;;;25.93;19.30;;;;;;;5.74;93.85;98769.41;5111702;28;20393;-59
2021/12/11 05:27:07;;;;;;;19.87;15.87;;;;;;;5.75;93.56;98749.06;5111656;28;20195;-60
2021/12/11 05:29:34;;;;;;;29.27;20.67;;;;;;;5.71;94.19;98748.97;5111148;28;20216;-59
2021/12/11 05:32:03;;;;;;;28.63;20.07;;;;;;;5.75;93.49;98743.97;5111411;28;20193;-59
2021/12/11 05:34:31;;;;;;;26.67;19.97;;;;;;;5.78;93.41;98750.81;5111392;28;20197;-59
2021/12/11 05:36:58;;;;;;;25.07;20.30;;;;;;;5.81;92.85;98766.16;5111573;28;20201;-60
2021/12/11 05:39:25;;;;;;;25.30;19.53;;;;;;;5.81;93.65;98761.94;5111659;28;20192;-59
2021/12/11 05:41:53;;;;;;;22.00;17.50;;;;;;;5.79;93.02;98767.84;5111330;28;20196;-60
2021/12/11 05:44:22;;;;;;;24.55;19.08;;;;;;;5.82;93.07;98780.66;5110954;28;20444;-60
2021/12/11 05:46:51;;;;;;;23.23;18.80;;;;;;;5.89;92.27;98785.09;5111000;28;20191;-60
2021/12/11 05:49:19;;;;;;;24.13;18.20;;;;;;;5.94;92.16;98786.03;5111054;28;20686;-60
2021/12/11 05:51:50;;;;;;;21.07;16.63;;;;;;;5.96;91.93;98771.63;5111252;28;20201;-60
2021/12/11 05:54:23;;;;;;;22.83;17.40;;;;;;;5.95;91.21;98775.03;5111183;28;20203;-60
2021/12/11 05:56:53;;;;;;;26.33;20.37;;;;;;;5.97;91.49;98778.47;5111415;28;20192;-60
2021/12/11 05:59:20;;;;;;;29.07;22.87;;;;;;;5.98;91.45;98785.31;5111127;28;20292;-60
2021/12/11 06:01:53;;;;;;;27.63;21.67;;;;;;;5.73;91.26;98722.69;5110922;28;20196;-60
2021/12/11 06:04:23;;;;;;;30.50;21.47;;;;;;;5.92;91.64;98783.47;5111080;28;20779;-59
2021/12/11 06:06:53;;;;;;;28.20;21.00;;;;;;;5.87;91.69;98782.50;5110825;28;20281;-59
2021/12/11 06:09:23;;;;;;;29.60;24.77;;;;;;;5.81;91.98;98789.97;5110716;28;20193;-60
2021/12/11 06:11:52;;;;;;;29.70;20.17;;;;;;;5.79;92.32;98772.94;5110767;28;20202;-60
2021/12/11 06:14:21;;;;;;;28.95;22.20;;;;;;;5.79;92.44;98783.13;5110538;28;20517;-60
2021/12/11 06:16:50;;;;;;;28.53;22.23;;;;;;;5.87;92.31;98761.25;5110995;28;20191;-60
2021/12/11 06:19:20;;;;;;;33.15;25.45;;;;;;;6.00;93.03;98773.44;5110098;28;20462;-60
2021/12/11 06:21:48;;;;;;;26.63;22.03;;;;;;;6.16;92.63;98767.84;5110749;28;20197;-61
2021/12/11 06:24:17;;;;;;;25.50;19.47;;;;;;;6.26;91.73;98779.97;5110907;28;20202;-60
2021/12/11 06:26:45;;;;;;;27.63;21.03;;;;;;;6.39;91.57;98768.34;5110880;28;20287;-59
2021/12/11 06:29:12;;;;;;;26.83;20.70;;;;;;;6.46;90.67;98776.16;5110804;28;20212;-59
2021/12/11 06:31:39;;;;;;;28.80;21.43;;;;;;;6.90;90.61;98766.81;5110514;28;20228;-59
2021/12/11 06:34:06;;;;;;;28.23;22.07;;;;;;;7.53;88.29;98779.88;5110670;28;20577;-59
2021/12/11 06:36:33;;;;;;;26.70;19.77;;;;;;;7.24;84.52;98783.63;5110129;28;20181;-59
2021/12/11 06:39:06;;;;;;;21.73;17.57;;;;;;;7.10;84.56;98778.28;5110262;28;20290;-60
2021/12/11 06:41:37;;;;;;;27.83;19.63;;;;;;;6.99;84.69;98800.19;5110379;28;20273;-59
2021/12/11 06:44:05;;;;;;;28.27;18.90;;;;;;;7.08;85.25;98785.06;5110673;28;20180;-59
2021/12/11 06:46:34;;;;;;;26.30;19.13;;;;;;;7.43;84.86;98778.00;5094903;28;20719;-57
2021/12/11 06:49:01;;;;;;;25.27;18.60;;;;;;;7.66;82.54;98770.72;5081868;28;20194;-57
2021/12/11 06:51:29;;;;;;;27.23;19.10;;;;;;;7.44;82.32;98779.75;5072573;28;20211;-57
2021/12/11 06:54:00;;;;;;;25.10;19.53;;;;;;;7.52;82.96;98775.63;5080054;28;20278;-57
2021/12/11 06:56:29;;;;;;;27.27;19.17;;;;;;;7.48;83.16;98758.50;5090038;28;20193;-57
2021/12/11 06:58:59;;;;;;;27.77;21.13;;;;;;;7.34;83.69;98761.63;5089865;28;20194;-57
2021/12/11 07:01:27;;;;;;;30.33;22.42;;;;;;;7.31;84.40;98759.03;5089591;28;20424;-57
2021/12/11 07:03:56;;;;;;;30.87;22.00;;;;;;;7.72;84.72;98766.53;5089854;28;20201;-56
2021/12/11 07:06:25;;;;;;;24.50;18.10;;;;;;;8.05;82.88;98753.41;5090000;28;20197;-56
2021/12/11 07:08:53;;;;;;;23.23;16.60;;;;;;;8.03;81.35;98764.44;5089931;28;20285;-56
2021/12/11 07:11:21;;;;;;;22.30;17.50;;;;;;;7.99;81.74;98770.38;5089843;28;20699;-56
2021/12/11 07:13:48;;;;;;;24.03;18.17;;;;;;;7.81;82.01;98755.59;5089882;28;20190;-56
2021/12/11 07:16:17;;;;;;;20.70;15.90;;;;;;;8.03;83.10;98779.81;5089972;28;20186;-56
2021/12/11 07:18:44;;;;;;;22.90;15.60;;;;;;;8.11;82.72;98780.78;5077735;28;20283;-56
2021/12/11 07:21:11;;;;;;;20.90;16.60;;;;;;;8.20;83.06;98784.34;5069877;28;20187;-56
2021/12/11 07:23:45;;;;;;;23.17;16.73;;;;;;;8.27;82.44;98788.72;5069471;28;20192;-56
2021/12/11 07:26:16;;;;;;;23.60;17.60;;;;;;;8.25;82.10;98790.38;5071538;28;20203;-56
2021/12/11 07:28:46;;;;;;;23.23;17.60;;;;;;;8.23;81.85;98773.28;5073458;28;20597;-56
2021/12/11 07:31:14;;;;;;;25.73;18.10;;;;;;;8.21;82.13;98760.44;5072966;28;20237;-57
2021/12/11 07:33:43;;;;;;;23.27;18.40;;;;;;;8.32;82.04;98767.47;5073444;28;20202;-56
2021/12/11 07:36:10;;;;;;;24.87;18.60;;;;;;;8.38;82.15;98767.56;5073256;28;20304;-57
2021/12/11 07:38:37;;;;;;;24.77;19.43;;;;;;;8.46;81.86;98769.34;5072904;28;20202;-56
2021/12/11 07:41:07;;;;;;;21.50;16.80;;;;;;;8.57;81.42;98756.69;5073094;28;20194;-57
2021/12/11 07:43:37;;;;;;;28.30;17.93;;;;;;;8.55;82.24;98740.44;5073155;28;20199;-57
2021/12/11 07:46:06;;;;;;;26.10;17.97;;;;;;;8.68;81.17;98730.34;5072807;28;20188;-56
2021/12/11 07:48:34;;;;;;;19.52;16.60;;;;;;;8.52;81.61;98751.50;5072350;28;20525;-57
2021/12/11 07:51:04;;;;;;;23.67;18.43;;;;;;;8.53;81.86;98747.25;5072788;28;20319;-56
2021/12/11 07:53:31;;;;;;;29.42;23.27;;;;;;;8.76;81.53;98740.72;5075727;28;20448;-56
2021/12/11 07:55:59;;;;;;;20.87;17.17;;;;;;;9.01;80.25;98736.72;5092925;28;20194;-56
2021/12/11 07:58:26;;;;;;;24.20;18.33;;;;;;;9.12;79.72;98733.38;5112072;28;20290;-56
2021/12/11 08:00:53;;;;;;;22.10;16.73;;;;;;;9.22;79.36;98726.66;5113123;28;20213;-56
2021/12/11 08:03:20;;;;;;;21.00;16.60;;;;;;;9.12;79.60;98725.69;5110039;28;20430;-56
2021/12/11 08:05:51;;;;;;;22.53;15.97;;;;;;;9.41;79.40;98719.16;5104868;28;20208;-57
2021/12/11 08:08:20;;;;;;;20.93;16.87;;;;;;;9.22;78.97;98729.22;5113319;28;20185;-57
2021/12/11 08:10:51;;;;;;;29.23;16.10;;;;;;;9.25;79.60;98734.38;5089681;28;20212;-57
2021/12/11 08:13:18;;;;;;;18.63;16.40;;;;;;;9.46;80.52;98743.09;5092313;28;20203;-57
2021/12/11 08:15:45;;;;;;;27.53;18.63;;;;;;;9.67;80.25;98729.59;5092621;28;20191;-57
2021/12/11 08:18:15;;;;;;;33.73;17.77;;;;;;;9.84;79.26;98729.69;5092129;28;20205;-57
2021/12/11 08:20:44;;;;;;;24.40;16.50;;;;;;;10.04;77.70;98726.44;5092766;28;20198;-57
2021/12/11 08:23:12;;;;;;;23.07;16.43;;;;;;;10.04;77.17;98716.16;5092495;28;20662;-57
2021/12/11 08:25:43;;;;;;;28.37;17.57;;;;;;;10.10;77.79;98717.91;5092160;28;20285;-57
2021/12/11 08:28:13;;;;;;;20.50;17.77;;;;;;;10.21;77.24;98728.25;5101459;28;20582;-57
2021/12/11 08:30:43;;;;;;;28.57;19.10;;;;;;;10.15;77.15;98729.09;5102509;28;20231;-57
2021/12/11 08:33:10;;;;;;;42.40;21.80;;;;;;;10.15;77.33;98721.38;5092375;28;20200;-62
2021/12/11 08:35:37;;;;;;;30.57;23.33;;;;;;;10.18;77.63;98717.97;5091852;28;20292;-62
2021/12/11 08:38:07;;;;;;;34.95;25.10;;;;;;;10.29;77.58;98709.47;5091560;28;20514;-61
2021/12/11 08:40:40;;;;;;;31.93;24.03;;;;;;;10.36;77.58;98718.91;5091678;28;20279;-61
2021/12/11 08:43:10;;;;;;;30.23;22.13;;;;;;;10.43;77.46;98709.53;5091565;28;20197;-61
2021/12/11 08:45:46;;;;;;;29.87;21.87;;;;;;;10.53;77.24;98704.44;5092047;28;20251;-62
2021/12/11 08:48:18;;;;;;;31.27;22.50;;;;;;;10.68;76.84;98703.66;5096306;28;20730;-61
2021/12/11 08:50:48;;;;;;;32.77;23.90;;;;;;;10.74;76.36;98695.09;5109677;28;20206;-62
2021/12/11 08:53:15;;;;;;;33.83;25.27;;;;;;;10.83;76.86;98693.41;5112127;28;20277;-62
2021/12/11 08:55:46;;;;;;;34.50;24.50;;;;;;;10.87;76.47;98677.16;5112111;28;20558;-62
2021/12/11 08:58:17;;;;;;;32.57;24.93;;;;;;;11.05;76.43;98682.31;5111947;28;21020;-62
2021/12/11 09:00:49;;;;;;;35.57;25.77;;;;;;;11.09;76.21;98688.31;5111991;28;20274;-62
2021/12/11 09:03:21;;;;;;;40.47;25.93;;;;;;;11.16;75.82;98700.31;5111900;28;20190;-62
2021/12/11 09:05:53;;;;;;;33.77;25.33;;;;;;;11.26;75.44;98674.59;5111634;28;20190;-62
2021/12/11 09:08:26;;;;;;;36.67;25.70;;;;;;;11.38;75.35;98662.59;5111477;28;20637;-61
2021/12/11 09:10:56;;;;;;;34.33;23.37;;;;;;;11.39;74.97;98656.59;5111500;28;20209;-63
2021/12/11 09:13:29;;;;;;;35.63;25.07;;;;;;;11.41;75.24;98640.31;5111081;28;20198;-61
2021/12/11 09:16:01;;;;;;;36.80;24.27;;;;;;;11.58;75.15;98648.00;5111309;28;20223;-63
2021/12/11 09:18:31;;;;;;;35.27;25.50;;;;;;;11.76;74.89;98643.72;5111235;28;20517;-63
2021/12/11 09:21:03;;;;;;;33.87;29.00;;;;;;;11.83;74.54;98629.13;5110213;28;21193;-62
2021/12/11 09:23:38;;;;;;;37.60;25.50;;;;;;;12.01;73.58;98610.19;5111217;28;20190;-61
2021/12/11 09:26:10;;;;;;;30.80;23.20;;;;;;;12.09;73.32;98616.16;5111390;28;20687;-61
2021/12/11 09:28:43;;;;;;;29.33;22.47;;;;;;;12.05;73.86;98615.34;5109759;28;20565;-62
2021/12/11 09:31:16;;;;;;;33.20;22.27;;;;;;;12.15;73.41;98603.25;5093801;28;20230;-62
2021/12/11 09:33:48;;;;;;;29.60;23.00;;;;;;;12.16;73.98;98586.97;5091715;28;20202;-61
2021/12/11 09:36:20;;;;;;;35.57;24.23;;;;;;;12.16;73.47;98586.97;5090882;28;20638;-62
2021/12/11 09:38:52;;;;;;;35.27;23.50;;;;;;;12.18;74.07;98583.50;5090698;28;20187;-62
2021/12/11 09:41:18;;;;;;;30.80;23.20;;;;;;;12.26;74.22;98586.91;5090659;28;20637;-62
2021/12/11 09:43:50;;;;;;;27.10;20.97;;;;;;;12.29;74.20;98589.47;5090693;28;20191;-62
2021/12/11 09:46:23;;;;;;;26.50;20.90;;;;;;;12.34;74.13;98572.25;5090653;28;20201;-61
2021/12/11 09:48:52;;;;;;;25.55;20.10;;;;;;;12.40;74.47;98576.53;5089846;28;20455;-62
2021/12/11 09:51:26;;;;;;;27.10;16.93;;;;;;;12.49;74.83;98584.22;5090433;28;20225;-62
2021/12/11 09:53:59;;;;;;;29.35;18.52;;;;;;;12.55;74.74;98576.44;5090462;28;20468;-62
2021/12/11 09:56:36;;;;;;;26.50;17.07;;;;;;;12.56;74.41;98588.44;5090072;28;20191;-62
2021/12/11 09:59:09;;;;;;;24.30;16.13;;;;;;;12.61;75.02;98586.69;5090130;28;20274;-62
2021/12/11 10:01:39;;;;;;;30.30;19.30;;;;;;;12.65;73.78;98585.81;5090274;28;20626;-62
2021/12/11 10:04:12;;;;;;;23.77;19.50;;;;;;;12.67;73.42;98581.50;5089558;28;20440;-63
2021/12/11 10:06:49;;;;;;;25.10;16.77;;;;;;;12.72;73.81;98579.75;5090398;28;20278;-62
2021/12/11 10:09:19;;;;;;;31.30;18.77;;;;;;;12.82;73.79;98557.34;5090489;28;20225;-63
2021/12/11 10:11:53;;;;;;;21.90;16.25;;;;;;;12.85;73.36;98567.63;5089238;28;20832;-63
2021/12/11 10:14:25;;;;;;;21.43;16.07;;;;;;;12.99;74.20;98561.47;5089855;28;20284;-61
2021/12/11 10:16:57;;;;;;;19.87;14.40;;;;;;;13.04;74.04;98558.88;5089845;28;20186;-62
2021/12/11 10:19:29;;;;;;;17.03;13.83;;;;;;;13.08;74.64;98558.00;5090531;28;20618;-61
2021/12/11 10:22:04;;;;;;;20.73;13.67;;;;;;;13.13;75.63;98545.09;5090198;28;20191;-63
2021/12/11 10:24:34;;;;;;;23.00;14.63;;;;;;;13.27;74.73;98550.94;5090105;28;20264;-61
2021/12/11 10:27:04;;;;;;;20.87;13.27;;;;;;;13.31;74.73;98539.75;5090424;28;20277;-61
2021/12/11 10:29:32;;;;;;;21.73;13.90;;;;;;;13.39;75.35;98532.78;5089736;28;20689;-60
2021/12/11 10:32:06;;;;;;;18.40;13.37;;;;;;;13.50;74.77;98515.44;5090089;28;20218;-60
2021/12/11 10:34:38;;;;;;;14.60;11.93;;;;;;;13.53;74.60;98526.59;5089983;28;20190;-61
2021/12/11 10:37:10;;;;;;;21.13;12.87;;;;;;;13.49;74.85;98530.06;5089944;28;20228;-61
2021/12/11 10:39:39;;;;;;;19.10;12.60;;;;;;;13.48;75.20;98532.69;5089857;28;20195;-61
2021/12/11 10:42:06;;;;;;;19.33;12.83;;;;;;;13.38;75.28;98533.63;5089242;28;20231;-62
2021/12/11 10:44:38;;;;;;;23.10;14.00;;;;;;;13.34;75.98;98532.84;5089490;28;20191;-62
2021/12/11 10:47:10;;;;;;;22.33;14.53;;;;;;;13.34;75.92;98535.41;5090120;28;20305;-63
2021/12/11 10:49:39;;;;;;;19.17;14.03;;;;;;;13.33;76.38;98538.84;5089576;28;20195;-61
2021/12/11 10:52:09;;;;;;;23.10;13.87;;;;;;;13.24;76.69;98532.94;5089835;28;20345;-61
2021/12/11 10:54:36;;;;;;;21.20;12.77;;;;;;;13.23;76.96;98514.03;5089357;28;20654;-61
2021/12/11 10:57:04;;;;;;;19.13;13.40;;;;;;;13.13;78.28;98496.09;5089215;28;20285;-62
2021/12/11 10:59:35;;;;;;;19.67;12.07;;;;;;;13.18;78.71;98505.50;5089869;28;20195;-61
2021/12/11 11:02:08;;;;;;;20.83;14.17;;;;;;;13.17;79.10;98496.03;5093151;28;20187;-61
2021/12/11 11:04:38;;;;;;;25.57;13.60;;;;;;;13.19;79.55;98488.25;5093681;28;20317;-61
2021/12/11 11:07:06;;;;;;;21.35;15.52;;;;;;;13.23;79.58;98480.50;5092389;28;20443;-61
2021/12/11 11:09:34;;;;;;;18.97;14.70;;;;;;;13.36;78.90;98464.00;5093546;28;20647;-61
2021/12/11 11:12:05;;;;;;;23.83;17.40;;;;;;;13.44;78.99;98458.75;5093518;28;20245;-62
2021/12/11 11:14:32;;;;;;;23.20;16.57;;;;;;;13.49;78.98;98462.13;5093397;28;20198;-61
2021/12/11 11:17:04;;;;;;;24.93;16.67;;;;;;;13.53;78.62;98462.09;5093047;28;20212;-61
2021/12/11 11:19:34;;;;;;;29.07;17.87;;;;;;;13.60;78.83;98450.81;5092790;28;20195;-61
2021/12/11 11:22:05;;;;;;;26.60;19.63;;;;;;;13.64;79.27;98456.78;5092682;28;20198;-61
2021/12/11 11:24:37;;;;;;;25.43;16.47;;;;;;;13.69;79.48;98449.84;5093270;28;20345;-61
2021/12/11 11:27:05;;;;;;;26.35;16.30;;;;;;;13.73;80.20;98450.66;5092715;28;20444;-62
2021/12/11 11:29:33;;;;;;;20.53;13.07;;;;;;;13.77;81.13;98439.41;5092746;28;20603;-60
2021/12/11 11:32:06;;;;;;;19.53;12.00;;;;;;;13.81;83.07;98439.38;5092553;28;20218;-61
2021/12/11 11:34:40;;;;;;;12.30;8.07;;;;;;;13.71;84.64;98413.66;5092704;28;20191;-62
2021/12/11 11:37:08;;;;;;;18.13;10.82;;;;;;;13.81;85.24;98416.13;5091650;28;21302;-61